sensor_id;sensor_type;location;lat;lon;timestamp;temperature;humidity
35027;DHT22;60696;51.426;6.934;2022-07-23T00:01:28;15.50;99.90
35027;DHT22;60696;51.426;6.934;2022-07-23T00:03:55;15.50;99.90
35027;DHT22;60696;51.426;6.934;2022-07-23T00:06:22;15.30;99.90
35027;DHT22;60696;51.426;6.934;2022-07-23T00:08:47;15.20;99.90
35027;DHT22;60696;51.426;6.934;2022-07-23T00:11:13;15.20;99.90
35027;DHT22;60696;51.426;6.934;2022-07-23T00:13:39;15.20;99.90
35027;DHT22;60696;51.426;6.934;2022-07-23T00:16:05;15.20;99.90
35027;DHT22;60696;51.426;6.934;2022-07-23T00:18:30;15.20;99.90
35027;DHT22;60696;51.426;6.934;2022-07-23T00:20:56;15.20;99.90
35027;DHT22;60696;51.426;6.934;2022-07-23T00:23:22;15.30;99.90
35027;DHT22;60696;51.426;6.934;2022-07-23T00:25:47;15.20;99.90
35027;DHT22;60696;51.426;6.934;2022-07-23T00:28:13;15.20;99.90
35027;DHT22;60696;51.426;6.934;2022-07-23T00:30:39;15.20;99.90
35027;DHT22;60696;51.426;6.934;2022-07-23T00:33:07;15.20;99.90
35027;DHT22;60696;51.426;6.934;2022-07-23T00:35:37;15.20;99.90
35027;DHT22;60696;51.426;6.934;2022-07-23T00:38:06;15.10;99.90
35027;DHT22;60696;51.426;6.934;2022-07-23T00:40:33;15.10;99.90
35027;DHT22;60696;51.426;6.934;2022-07-23T00:42:59;15.20;99.90
35027;DHT22;60696;51.426;6.934;2022-07-23T00:45:25;15.10;99.90
35027;DHT22;60696;51.426;6.934;2022-07-23T00:47:51;15.10;99.90
35027;DHT22;60696;51.426;6.934;2022-07-23T00:50:17;15.20;99.90
35027;DHT22;60696;51.426;6.934;2022-07-23T00:52:43;15.20;99.90
35027;DHT22;60696;51.426;6.934;2022-07-23T00:55:10;15.20;99.90
35027;DHT22;60696;51.426;6.934;2022-07-23T00:57:37;15.10;99.90
35027;DHT22;60696;51.426;6.934;2022-07-23T01:00:05;15.20;99.90
35027;DHT22;60696;51.426;6.934;2022-07-23T01:02:31;15.30;99.90
35027;DHT22;60696;51.426;6.934;2022-07-23T01:04:57;15.20;99.90
35027;DHT22;60696;51.426;6.934;2022-07-23T01:07:23;15.40;99.90
35027;DHT22;60696;51.426;6.934;2022-07-23T01:09:49;15.40;99.90
35027;DHT22;60696;51.426;6.934;2022-07-23T01:12:16;15.40;99.90
35027;DHT22;60696;51.426;6.934;2022-07-23T01:14:41;15.40;99.90
35027;DHT22;60696;51.426;6.934;2022-07-23T01:17:07;15.50;99.90
35027;DHT22;60696;51.426;6.934;2022-07-23T01:19:33;15.50;99.90
35027;DHT22;60696;51.426;6.934;2022-07-23T01:22:02;15.50;99.90
35027;DHT22;60696;51.426;6.934;2022-07-23T01:24:28;15.60;99.90
35027;DHT22;60696;51.426;6.934;2022-07-23T01:26:54;15.60;99.90
35027;DHT22;60696;51.426;6.934;2022-07-23T01:29:20;15.50;99.90
35027;DHT22;60696;51.426;6.934;2022-07-23T01:31:46;15.50;99.90
35027;DHT22;60696;51.426;6.934;2022-07-23T01:34:12;15.60;99.90
35027;DHT22;60696;51.426;6.934;2022-07-23T01:36:38;15.60;99.90
35027;DHT22;60696;51.426;6.934;2022-07-23T01:39:05;15.60;99.90
35027;DHT22;60696;51.426;6.934;2022-07-23T01:41:31;15.60;99.90
35027;DHT22;60696;51.426;6.934;2022-07-23T01:43:57;15.60;99.90
35027;DHT22;60696;51.426;6.934;2022-07-23T01:46:22;15.70;99.90
35027;DHT22;60696;51.426;6.934;2022-07-23T01:48:48;15.60;99.90
35027;DHT22;60696;51.426;6.934;2022-07-23T01:51:14;15.60;99.90
35027;DHT22;60696;51.426;6.934;2022-07-23T01:53:40;15.50;99.90
35027;DHT22;60696;51.426;6.934;2022-07-23T01:56:05;15.70;99.90
35027;DHT22;60696;51.426;6.934;2022-07-23T01:58:31;15.60;99.90
35027;DHT22;60696;51.426;6.934;2022-07-23T02:00:57;15.60;99.90
35027;DHT22;60696;51.426;6.934;2022-07-23T02:03:23;15.70;99.90
35027;DHT22;60696;51.426;6.934;2022-07-23T02:05:49;15.70;99.90
35027;DHT22;60696;51.426;6.934;2022-07-23T02:08:14;15.60;99.90
35027;DHT22;60696;51.426;6.934;2022-07-23T02:10:40;15.80;99.90
35027;DHT22;60696;51.426;6.934;2022-07-23T02:13:06;15.80;99.90
35027;DHT22;60696;51.426;6.934;2022-07-23T02:15:32;15.90;99.90
35027;DHT22;60696;51.426;6.934;2022-07-23T02:17:58;16.00;99.90
35027;DHT22;60696;51.426;6.934;2022-07-23T02:20:24;16.00;99.90
35027;DHT22;60696;51.426;6.934;2022-07-23T02:22:49;16.00;99.90
35027;DHT22;60696;51.426;6.934;2022-07-23T02:25:15;16.00;99.90
35027;DHT22;60696;51.426;6.934;2022-07-23T02:27:41;16.00;99.90
35027;DHT22;60696;51.426;6.934;2022-07-23T02:30:07;15.80;99.90
35027;DHT22;60696;51.426;6.934;2022-07-23T02:32:33;15.90;99.90
35027;DHT22;60696;51.426;6.934;2022-07-23T02:34:59;15.90;99.90
35027;DHT22;60696;51.426;6.934;2022-07-23T02:37:25;15.80;99.90
35027;DHT22;60696;51.426;6.934;2022-07-23T02:39:50;15.70;99.90
35027;DHT22;60696;51.426;6.934;2022-07-23T02:42:16;15.60;99.90
35027;DHT22;60696;51.426;6.934;2022-07-23T02:44:42;15.60;99.90
35027;DHT22;60696;51.426;6.934;2022-07-23T02:47:07;15.70;99.90
35027;DHT22;60696;51.426;6.934;2022-07-23T02:49:33;15.60;99.90
35027;DHT22;60696;51.426;6.934;2022-07-23T02:51:59;15.70;99.90
35027;DHT22;60696;51.426;6.934;2022-07-23T02:54:25;15.80;99.90
35027;DHT22;60696;51.426;6.934;2022-07-23T02:56:50;15.80;99.90
35027;DHT22;60696;51.426;6.934;2022-07-23T02:59:17;15.80;99.90
35027;DHT22;60696;51.426;6.934;2022-07-23T03:01:43;15.70;99.90
35027;DHT22;60696;51.426;6.934;2022-07-23T03:04:08;15.50;99.90
35027;DHT22;60696;51.426;6.934;2022-07-23T03:06:34;15.60;99.90
35027;DHT22;60696;51.426;6.934;2022-07-23T03:09:00;15.50;99.90
35027;DHT22;60696;51.426;6.934;2022-07-23T03:11:25;15.40;99.90
35027;DHT22;60696;51.426;6.934;2022-07-23T03:13:51;15.30;99.90
35027;DHT22;60696;51.426;6.934;2022-07-23T03:16:16;15.40;99.90
35027;DHT22;60696;51.426;6.934;2022-07-23T03:18:42;15.50;99.90
35027;DHT22;60696;51.426;6.934;2022-07-23T03:21:08;15.40;99.90
35027;DHT22;60696;51.426;6.934;2022-07-23T03:23:34;15.40;99.90
35027;DHT22;60696;51.426;6.934;2022-07-23T03:25:59;15.30;99.90
35027;DHT22;60696;51.426;6.934;2022-07-23T03:28:25;15.40;99.90
35027;DHT22;60696;51.426;6.934;2022-07-23T03:30:50;15.20;99.90
35027;DHT22;60696;51.426;6.934;2022-07-23T03:33:17;15.20;99.90
35027;DHT22;60696;51.426;6.934;2022-07-23T03:35:44;15.30;99.90
35027;DHT22;60696;51.426;6.934;2022-07-23T03:38:10;15.30;99.90
35027;DHT22;60696;51.426;6.934;2022-07-23T03:43:10;15.40;99.90
35027;DHT22;60696;51.426;6.934;2022-07-23T03:45:35;15.30;99.90
35027;DHT22;60696;51.426;6.934;2022-07-23T03:48:01;15.20;99.90
35027;DHT22;60696;51.426;6.934;2022-07-23T03:50:27;15.20;99.90
35027;DHT22;60696;51.426;6.934;2022-07-23T03:52:52;15.30;99.90
35027;DHT22;60696;51.426;6.934;2022-07-23T03:55:19;15.20;99.90
35027;DHT22;60696;51.426;6.934;2022-07-23T03:57:45;15.10;99.90
35027;DHT22;60696;51.426;6.934;2022-07-23T04:00:11;15.20;99.90
35027;DHT22;60696;51.426;6.934;2022-07-23T04:02:38;15.20;99.90
35027;DHT22;60696;51.426;6.934;2022-07-23T04:05:05;15.30;99.90
35027;DHT22;60696;51.426;6.934;2022-07-23T04:07:31;15.30;99.90
35027;DHT22;60696;51.426;6.934;2022-07-23T04:09:57;15.40;99.90
35027;DHT22;60696;51.426;6.934;2022-07-23T04:12:23;15.40;99.90
35027;DHT22;60696;51.426;6.934;2022-07-23T04:14:49;15.30;99.90
35027;DHT22;60696;51.426;6.934;2022-07-23T04:17:15;15.50;99.90
35027;DHT22;60696;51.426;6.934;2022-07-23T04:19:40;15.40;99.90
35027;DHT22;60696;51.426;6.934;2022-07-23T04:22:08;15.40;99.90
35027;DHT22;60696;51.426;6.934;2022-07-23T04:24:34;15.30;99.90
35027;DHT22;60696;51.426;6.934;2022-07-23T04:27:00;15.20;99.90
35027;DHT22;60696;51.426;6.934;2022-07-23T04:29:25;15.40;99.90
35027;DHT22;60696;51.426;6.934;2022-07-23T04:31:51;15.50;99.90
35027;DHT22;60696;51.426;6.934;2022-07-23T04:34:17;15.60;99.90
35027;DHT22;60696;51.426;6.934;2022-07-23T04:36:42;15.50;99.90
35027;DHT22;60696;51.426;6.934;2022-07-23T04:39:08;15.70;99.90
35027;DHT22;60696;51.426;6.934;2022-07-23T04:41:34;15.70;99.90
35027;DHT22;60696;51.426;6.934;2022-07-23T04:44:00;15.80;99.90
35027;DHT22;60696;51.426;6.934;2022-07-23T04:46:26;15.80;99.90
35027;DHT22;60696;51.426;6.934;2022-07-23T04:48:52;16.00;99.90
35027;DHT22;60696;51.426;6.934;2022-07-23T04:51:17;16.10;99.90
35027;DHT22;60696;51.426;6.934;2022-07-23T04:53:43;16.70;99.90
35027;DHT22;60696;51.426;6.934;2022-07-23T04:56:09;17.10;99.90
35027;DHT22;60696;51.426;6.934;2022-07-23T04:58:34;17.30;99.90
35027;DHT22;60696;51.426;6.934;2022-07-23T05:01:00;17.40;99.90
35027;DHT22;60696;51.426;6.934;2022-07-23T05:03:26;17.70;99.90
35027;DHT22;60696;51.426;6.934;2022-07-23T05:05:51;18.00;99.90
35027;DHT22;60696;51.426;6.934;2022-07-23T05:08:17;18.20;99.90
35027;DHT22;60696;51.426;6.934;2022-07-23T05:10:43;18.20;99.90
35027;DHT22;60696;51.426;6.934;2022-07-23T05:13:08;18.80;99.90
35027;DHT22;60696;51.426;6.934;2022-07-23T05:15:34;18.90;99.90
35027;DHT22;60696;51.426;6.934;2022-07-23T05:18:00;19.30;99.90
35027;DHT22;60696;51.426;6.934;2022-07-23T05:20:25;19.40;99.90
35027;DHT22;60696;51.426;6.934;2022-07-23T05:22:51;19.50;99.90
35027;DHT22;60696;51.426;6.934;2022-07-23T05:25:17;19.70;99.90
35027;DHT22;60696;51.426;6.934;2022-07-23T05:27:42;19.90;99.90
35027;DHT22;60696;51.426;6.934;2022-07-23T05:30:09;20.20;99.90
35027;DHT22;60696;51.426;6.934;2022-07-23T05:32:35;20.70;99.90
35027;DHT22;60696;51.426;6.934;2022-07-23T05:35:02;21.80;99.90
35027;DHT22;60696;51.426;6.934;2022-07-23T05:37:28;22.30;99.90
35027;DHT22;60696;51.426;6.934;2022-07-23T05:39:54;21.70;99.90
35027;DHT22;60696;51.426;6.934;2022-07-23T05:42:19;21.90;99.90
35027;DHT22;60696;51.426;6.934;2022-07-23T05:44:45;22.70;99.90
35027;DHT22;60696;51.426;6.934;2022-07-23T05:47:11;23.10;99.90
35027;DHT22;60696;51.426;6.934;2022-07-23T05:49:37;24.10;99.90
35027;DHT22;60696;51.426;6.934;2022-07-23T05:52:05;22.90;99.90
35027;DHT22;60696;51.426;6.934;2022-07-23T05:54:33;22.40;99.90
35027;DHT22;60696;51.426;6.934;2022-07-23T05:56:59;22.80;99.90
35027;DHT22;60696;51.426;6.934;2022-07-23T05:59:24;22.60;99.90
35027;DHT22;60696;51.426;6.934;2022-07-23T06:01:50;22.80;99.90
35027;DHT22;60696;51.426;6.934;2022-07-23T06:04:15;24.10;99.90
35027;DHT22;60696;51.426;6.934;2022-07-23T06:06:41;24.20;99.90
35027;DHT22;60696;51.426;6.934;2022-07-23T06:09:07;23.80;99.90
35027;DHT22;60696;51.426;6.934;2022-07-23T06:11:32;25.10;99.90
35027;DHT22;60696;51.426;6.934;2022-07-23T06:13:58;25.70;99.90
35027;DHT22;60696;51.426;6.934;2022-07-23T06:16:24;24.20;99.90
35027;DHT22;60696;51.426;6.934;2022-07-23T06:18:49;24.40;99.90
35027;DHT22;60696;51.426;6.934;2022-07-23T06:21:15;23.50;99.90
35027;DHT22;60696;51.426;6.934;2022-07-23T06:23:40;24.60;99.90
35027;DHT22;60696;51.426;6.934;2022-07-23T06:26:06;24.10;99.90
35027;DHT22;60696;51.426;6.934;2022-07-23T06:28:32;25.40;99.90
35027;DHT22;60696;51.426;6.934;2022-07-23T06:30:58;27.10;99.90
35027;DHT22;60696;51.426;6.934;2022-07-23T06:33:23;29.20;99.90
35027;DHT22;60696;51.426;6.934;2022-07-23T06:35:49;29.20;97.20
35027;DHT22;60696;51.426;6.934;2022-07-23T06:38:14;28.00;97.90
35027;DHT22;60696;51.426;6.934;2022-07-23T06:40:40;28.90;97.80
35027;DHT22;60696;51.426;6.934;2022-07-23T06:43:06;29.90;96.10
35027;DHT22;60696;51.426;6.934;2022-07-23T06:45:31;29.00;95.10
35027;DHT22;60696;51.426;6.934;2022-07-23T06:47:57;27.40;96.90
35027;DHT22;60696;51.426;6.934;2022-07-23T06:50:23;26.30;99.90
35027;DHT22;60696;51.426;6.934;2022-07-23T06:52:48;26.80;99.90
35027;DHT22;60696;51.426;6.934;2022-07-23T06:55:14;27.50;99.80
35027;DHT22;60696;51.426;6.934;2022-07-23T06:57:40;26.90;99.90
35027;DHT22;60696;51.426;6.934;2022-07-23T07:00:06;27.10;99.90
35027;DHT22;60696;51.426;6.934;2022-07-23T07:02:32;26.90;98.80
35027;DHT22;60696;51.426;6.934;2022-07-23T07:04:57;27.80;99.60
35027;DHT22;60696;51.426;6.934;2022-07-23T07:07:23;26.80;99.90
35027;DHT22;60696;51.426;6.934;2022-07-23T07:09:49;27.90;99.00
35027;DHT22;60696;51.426;6.934;2022-07-23T07:12:14;26.10;99.90
35027;DHT22;60696;51.426;6.934;2022-07-23T07:14:40;27.20;99.90
35027;DHT22;60696;51.426;6.934;2022-07-23T07:17:05;28.00;99.90
35027;DHT22;60696;51.426;6.934;2022-07-23T07:19:31;27.50;99.10
35027;DHT22;60696;51.426;6.934;2022-07-23T07:21:57;28.10;99.10
35027;DHT22;60696;51.426;6.934;2022-07-23T07:24:22;29.10;96.30
35027;DHT22;60696;51.426;6.934;2022-07-23T07:26:48;29.90;95.20
35027;DHT22;60696;51.426;6.934;2022-07-23T07:29:13;30.30;92.80
35027;DHT22;60696;51.426;6.934;2022-07-23T07:31:39;29.10;93.70
35027;DHT22;60696;51.426;6.934;2022-07-23T07:34:05;29.40;91.40
35027;DHT22;60696;51.426;6.934;2022-07-23T07:36:30;27.40;93.40
35027;DHT22;60696;51.426;6.934;2022-07-23T07:38:56;26.80;95.20
35027;DHT22;60696;51.426;6.934;2022-07-23T07:41:22;28.50;94.00
35027;DHT22;60696;51.426;6.934;2022-07-23T07:43:50;29.50;92.00
35027;DHT22;60696;51.426;6.934;2022-07-23T07:46:15;29.20;91.20
35027;DHT22;60696;51.426;6.934;2022-07-23T07:48:41;28.00;93.00
35027;DHT22;60696;51.426;6.934;2022-07-23T07:51:07;28.10;92.10
35027;DHT22;60696;51.426;6.934;2022-07-23T07:53:32;28.40;92.30
35027;DHT22;60696;51.426;6.934;2022-07-23T07:55:58;27.60;91.10
35027;DHT22;60696;51.426;6.934;2022-07-23T07:58:24;29.60;88.10
35027;DHT22;60696;51.426;6.934;2022-07-23T08:00:49;29.80;90.10
35027;DHT22;60696;51.426;6.934;2022-07-23T08:03:16;29.60;90.10
35027;DHT22;60696;51.426;6.934;2022-07-23T08:05:42;27.40;93.20
35027;DHT22;60696;51.426;6.934;2022-07-23T08:08:08;28.30;93.50
35027;DHT22;60696;51.426;6.934;2022-07-23T08:10:35;29.30;91.90
35027;DHT22;60696;51.426;6.934;2022-07-23T08:13:01;32.30;87.40
35027;DHT22;60696;51.426;6.934;2022-07-23T08:15:29;33.20;80.70
35027;DHT22;60696;51.426;6.934;2022-07-23T08:17:55;31.30;82.80
35027;DHT22;60696;51.426;6.934;2022-07-23T08:20:22;30.60;81.20
35027;DHT22;60696;51.426;6.934;2022-07-23T08:22:59;30.40;81.60
35027;DHT22;60696;51.426;6.934;2022-07-23T08:25:31;31.20;82.30
35027;DHT22;60696;51.426;6.934;2022-07-23T08:27:58;28.40;86.10
35027;DHT22;60696;51.426;6.934;2022-07-23T08:30:25;29.40;85.80
35027;DHT22;60696;51.426;6.934;2022-07-23T08:32:58;29.10;83.30
35027;DHT22;60696;51.426;6.934;2022-07-23T08:35:36;30.60;81.70
35027;DHT22;60696;51.426;6.934;2022-07-23T08:38:05;29.70;86.00
35027;DHT22;60696;51.426;6.934;2022-07-23T08:40:36;30.00;83.70
35027;DHT22;60696;51.426;6.934;2022-07-23T08:43:09;31.00;84.80
35027;DHT22;60696;51.426;6.934;2022-07-23T08:45:42;30.90;78.60
35027;DHT22;60696;51.426;6.934;2022-07-23T08:48:15;31.20;80.00
35027;DHT22;60696;51.426;6.934;2022-07-23T08:50:43;31.20;77.30
35027;DHT22;60696;51.426;6.934;2022-07-23T08:53:09;31.10;76.30
35027;DHT22;60696;51.426;6.934;2022-07-23T08:55:35;30.50;79.00
35027;DHT22;60696;51.426;6.934;2022-07-23T08:58:01;32.80;74.80
35027;DHT22;60696;51.426;6.934;2022-07-23T09:00:27;30.30;76.50
35027;DHT22;60696;51.426;6.934;2022-07-23T09:02:53;30.40;80.00
35027;DHT22;60696;51.426;6.934;2022-07-23T09:05:19;30.40;78.50
35027;DHT22;60696;51.426;6.934;2022-07-23T09:08:08;29.80;78.40
35027;DHT22;60696;51.426;6.934;2022-07-23T09:15:49;30.40;77.40
35027;DHT22;60696;51.426;6.934;2022-07-23T09:18:16;31.50;74.60
35027;DHT22;60696;51.426;6.934;2022-07-23T09:20:43;31.20;73.30
35027;DHT22;60696;51.426;6.934;2022-07-23T09:23:08;29.70;75.30
35027;DHT22;60696;51.426;6.934;2022-07-23T09:25:34;30.80;75.20
35027;DHT22;60696;51.426;6.934;2022-07-23T09:28:00;29.20;73.40
35027;DHT22;60696;51.426;6.934;2022-07-23T09:30:31;29.20;78.30
35027;DHT22;60696;51.426;6.934;2022-07-23T09:33:13;28.20;77.70
35027;DHT22;60696;51.426;6.934;2022-07-23T09:35:55;27.80;81.40
35027;DHT22;60696;51.426;6.934;2022-07-23T09:38:23;28.30;85.50
35027;DHT22;60696;51.426;6.934;2022-07-23T09:41:09;28.20;81.40
35027;DHT22;60696;51.426;6.934;2022-07-23T09:43:35;28.70;80.60
35027;DHT22;60696;51.426;6.934;2022-07-23T09:46:40;28.20;81.90
35027;DHT22;60696;51.426;6.934;2022-07-23T09:49:23;27.90;84.50
35027;DHT22;60696;51.426;6.934;2022-07-23T09:51:53;27.20;82.30
35027;DHT22;60696;51.426;6.934;2022-07-23T09:56:48;27.90;83.20
35027;DHT22;60696;51.426;6.934;2022-07-23T09:59:15;27.80;82.20
35027;DHT22;60696;51.426;6.934;2022-07-23T10:01:44;27.70;83.10
35027;DHT22;60696;51.426;6.934;2022-07-23T10:04:11;27.10;87.80
35027;DHT22;60696;51.426;6.934;2022-07-23T10:06:39;27.20;83.00
35027;DHT22;60696;51.426;6.934;2022-07-23T10:09:05;27.30;82.50
35027;DHT22;60696;51.426;6.934;2022-07-23T10:11:33;27.30;84.10
35027;DHT22;60696;51.426;6.934;2022-07-23T10:14:00;26.50;86.50
35027;DHT22;60696;51.426;6.934;2022-07-23T10:16:28;26.40;90.50
35027;DHT22;60696;51.426;6.934;2022-07-23T10:18:54;26.80;87.00
35027;DHT22;60696;51.426;6.934;2022-07-23T10:21:40;27.20;85.10
35027;DHT22;60696;51.426;6.934;2022-07-23T10:29:47;27.60;83.40
35027;DHT22;60696;51.426;6.934;2022-07-23T10:37:47;28.20;80.30
35027;DHT22;60696;51.426;6.934;2022-07-23T10:40:19;28.30;79.50
35027;DHT22;60696;51.426;6.934;2022-07-23T10:42:47;27.80;80.30
35027;DHT22;60696;51.426;6.934;2022-07-23T10:45:23;27.30;80.10
35027;DHT22;60696;51.426;6.934;2022-07-23T10:47:49;26.70;85.30
35027;DHT22;60696;51.426;6.934;2022-07-23T10:50:36;26.00;87.30
35027;DHT22;60696;51.426;6.934;2022-07-23T10:53:17;25.90;82.90
35027;DHT22;60696;51.426;6.934;2022-07-23T10:55:44;26.30;90.40
35027;DHT22;60696;51.426;6.934;2022-07-23T10:58:11;26.80;90.20
35027;DHT22;60696;51.426;6.934;2022-07-23T11:00:42;26.80;88.70
35027;DHT22;60696;51.426;6.934;2022-07-23T11:03:30;27.00;86.40
35027;DHT22;60696;51.426;6.934;2022-07-23T11:05:57;26.60;89.50
35027;DHT22;60696;51.426;6.934;2022-07-23T11:08:23;26.60;82.50
35027;DHT22;60696;51.426;6.934;2022-07-23T11:10:50;27.00;82.20
35027;DHT22;60696;51.426;6.934;2022-07-23T11:18:52;27.50;85.70
35027;DHT22;60696;51.426;6.934;2022-07-23T11:24:04;27.60;87.50
35027;DHT22;60696;51.426;6.934;2022-07-23T11:31:57;27.10;81.20
35027;DHT22;60696;51.426;6.934;2022-07-23T11:34:33;27.70;78.80
35027;DHT22;60696;51.426;6.934;2022-07-23T11:37:00;27.80;83.40
35027;DHT22;60696;51.426;6.934;2022-07-23T11:39:27;26.90;82.10
35027;DHT22;60696;51.426;6.934;2022-07-23T11:41:54;27.10;84.00
35027;DHT22;60696;51.426;6.934;2022-07-23T11:46:59;26.90;83.00
35027;DHT22;60696;51.426;6.934;2022-07-23T11:49:25;26.70;79.70
35027;DHT22;60696;51.426;6.934;2022-07-23T11:52:08;26.30;80.90
35027;DHT22;60696;51.426;6.934;2022-07-23T11:54:36;26.00;85.80
35027;DHT22;60696;51.426;6.934;2022-07-23T11:57:03;26.20;89.10
35027;DHT22;60696;51.426;6.934;2022-07-23T11:59:33;26.50;85.50
35027;DHT22;60696;51.426;6.934;2022-07-23T12:02:03;26.40;83.80
35027;DHT22;60696;51.426;6.934;2022-07-23T12:04:40;26.60;84.70
35027;DHT22;60696;51.426;6.934;2022-07-23T12:07:25;26.50;83.40
35027;DHT22;60696;51.426;6.934;2022-07-23T12:09:51;26.60;84.50
35027;DHT22;60696;51.426;6.934;2022-07-23T12:12:17;26.60;83.00
35027;DHT22;60696;51.426;6.934;2022-07-23T12:14:52;25.60;84.30
35027;DHT22;60696;51.426;6.934;2022-07-23T12:17:19;25.90;85.80
35027;DHT22;60696;51.426;6.934;2022-07-23T12:19:46;26.10;87.50
35027;DHT22;60696;51.426;6.934;2022-07-23T12:22:12;26.40;85.90
35027;DHT22;60696;51.426;6.934;2022-07-23T12:25:02;26.50;86.80
35027;DHT22;60696;51.426;6.934;2022-07-23T12:27:29;26.20;84.00
35027;DHT22;60696;51.426;6.934;2022-07-23T12:29:55;26.10;85.20
35027;DHT22;60696;51.426;6.934;2022-07-23T12:32:25;26.40;86.00
35027;DHT22;60696;51.426;6.934;2022-07-23T12:35:06;26.40;84.50
35027;DHT22;60696;51.426;6.934;2022-07-23T12:37:37;26.20;84.40
35027;DHT22;60696;51.426;6.934;2022-07-23T12:42:45;26.20;86.80
35027;DHT22;60696;51.426;6.934;2022-07-23T12:45:11;26.10;84.50
35027;DHT22;60696;51.426;6.934;2022-07-23T12:48:03;26.20;87.60
35027;DHT22;60696;51.426;6.934;2022-07-23T12:50:58;25.30;87.30
35027;DHT22;60696;51.426;6.934;2022-07-23T12:53:47;25.40;87.40
35027;DHT22;60696;51.426;6.934;2022-07-23T12:56:13;25.90;87.90
35027;DHT22;60696;51.426;6.934;2022-07-23T12:58:47;26.30;89.60
35027;DHT22;60696;51.426;6.934;2022-07-23T13:01:25;26.60;88.20
35027;DHT22;60696;51.426;6.934;2022-07-23T13:04:11;26.60;89.90
35027;DHT22;60696;51.426;6.934;2022-07-23T13:06:38;26.50;85.60
35027;DHT22;60696;51.426;6.934;2022-07-23T13:09:11;26.40;83.40
35027;DHT22;60696;51.426;6.934;2022-07-23T13:11:38;26.30;84.90
35027;DHT22;60696;51.426;6.934;2022-07-23T13:14:04;26.00;84.20
35027;DHT22;60696;51.426;6.934;2022-07-23T13:16:31;26.50;85.80
35027;DHT22;60696;51.426;6.934;2022-07-23T13:18:57;26.50;86.70
35027;DHT22;60696;51.426;6.934;2022-07-23T13:21:24;26.70;86.00
35027;DHT22;60696;51.426;6.934;2022-07-23T13:23:49;26.60;88.20
35027;DHT22;60696;51.426;6.934;2022-07-23T13:26:15;26.60;84.40
35027;DHT22;60696;51.426;6.934;2022-07-23T13:28:41;26.20;88.50
35027;DHT22;60696;51.426;6.934;2022-07-23T13:31:07;26.10;86.00
35027;DHT22;60696;51.426;6.934;2022-07-23T13:33:33;26.10;82.10
35027;DHT22;60696;51.426;6.934;2022-07-23T13:35:58;26.10;87.90
35027;DHT22;60696;51.426;6.934;2022-07-23T13:38:24;26.30;85.80
35027;DHT22;60696;51.426;6.934;2022-07-23T13:40:52;26.50;84.70
35027;DHT22;60696;51.426;6.934;2022-07-23T13:43:20;26.20;85.40
35027;DHT22;60696;51.426;6.934;2022-07-23T13:45:46;26.40;87.00
35027;DHT22;60696;51.426;6.934;2022-07-23T13:48:13;25.70;82.30
35027;DHT22;60696;51.426;6.934;2022-07-23T13:50:40;26.00;85.90
35027;DHT22;60696;51.426;6.934;2022-07-23T13:53:08;26.00;84.90
35027;DHT22;60696;51.426;6.934;2022-07-23T13:55:35;26.10;84.80
35027;DHT22;60696;51.426;6.934;2022-07-23T13:58:02;25.70;84.10
35027;DHT22;60696;51.426;6.934;2022-07-23T14:00:29;25.90;86.60
35027;DHT22;60696;51.426;6.934;2022-07-23T14:02:56;26.00;84.60
35027;DHT22;60696;51.426;6.934;2022-07-23T14:05:22;25.70;87.00
35027;DHT22;60696;51.426;6.934;2022-07-23T14:07:48;26.00;87.00
35027;DHT22;60696;51.426;6.934;2022-07-23T14:10:15;26.20;85.50
35027;DHT22;60696;51.426;6.934;2022-07-23T14:12:41;25.60;85.50
35027;DHT22;60696;51.426;6.934;2022-07-23T14:15:07;25.50;85.30
35027;DHT22;60696;51.426;6.934;2022-07-23T14:17:37;25.40;85.00
35027;DHT22;60696;51.426;6.934;2022-07-23T14:20:05;25.40;83.00
35027;DHT22;60696;51.426;6.934;2022-07-23T14:22:31;25.50;84.30
35027;DHT22;60696;51.426;6.934;2022-07-23T14:24:57;25.40;83.10
35027;DHT22;60696;51.426;6.934;2022-07-23T14:27:24;25.40;83.30
35027;DHT22;60696;51.426;6.934;2022-07-23T14:29:50;25.30;87.30
35027;DHT22;60696;51.426;6.934;2022-07-23T14:32:16;25.20;86.30
35027;DHT22;60696;51.426;6.934;2022-07-23T14:34:42;25.50;86.60
35027;DHT22;60696;51.426;6.934;2022-07-23T14:37:09;25.60;84.70
35027;DHT22;60696;51.426;6.934;2022-07-23T14:39:37;25.60;85.10
35027;DHT22;60696;51.426;6.934;2022-07-23T14:42:03;25.70;83.50
35027;DHT22;60696;51.426;6.934;2022-07-23T14:44:29;25.70;83.80
35027;DHT22;60696;51.426;6.934;2022-07-23T14:46:55;26.00;85.30
35027;DHT22;60696;51.426;6.934;2022-07-23T14:49:21;25.90;83.80
35027;DHT22;60696;51.426;6.934;2022-07-23T14:51:47;26.00;80.20
35027;DHT22;60696;51.426;6.934;2022-07-23T14:54:14;25.80;83.20
35027;DHT22;60696;51.426;6.934;2022-07-23T14:56:41;25.60;82.50
35027;DHT22;60696;51.426;6.934;2022-07-23T14:59:07;25.50;82.70
35027;DHT22;60696;51.426;6.934;2022-07-23T15:01:33;25.70;83.00
35027;DHT22;60696;51.426;6.934;2022-07-23T15:03:59;25.70;84.30
35027;DHT22;60696;51.426;6.934;2022-07-23T15:06:24;25.90;82.90
35027;DHT22;60696;51.426;6.934;2022-07-23T15:08:50;25.90;81.90
35027;DHT22;60696;51.426;6.934;2022-07-23T15:11:16;25.80;84.00
35027;DHT22;60696;51.426;6.934;2022-07-23T15:13:42;25.80;84.70
35027;DHT22;60696;51.426;6.934;2022-07-23T15:16:08;26.00;83.60
35027;DHT22;60696;51.426;6.934;2022-07-23T15:18:34;26.10;82.80
35027;DHT22;60696;51.426;6.934;2022-07-23T15:21:00;26.00;82.20
35027;DHT22;60696;51.426;6.934;2022-07-23T15:23:26;26.00;82.90
35027;DHT22;60696;51.426;6.934;2022-07-23T15:25:54;25.90;79.90
35027;DHT22;60696;51.426;6.934;2022-07-23T15:28:20;25.90;82.70
35027;DHT22;60696;51.426;6.934;2022-07-23T15:30:45;26.30;84.50
35027;DHT22;60696;51.426;6.934;2022-07-23T15:33:11;26.30;83.80
35027;DHT22;60696;51.426;6.934;2022-07-23T15:35:37;25.90;81.40
35027;DHT22;60696;51.426;6.934;2022-07-23T15:38:02;26.10;82.10
35027;DHT22;60696;51.426;6.934;2022-07-23T15:40:28;26.10;82.10
35027;DHT22;60696;51.426;6.934;2022-07-23T15:42:54;26.00;80.30
35027;DHT22;60696;51.426;6.934;2022-07-23T15:45:20;26.00;81.60
35027;DHT22;60696;51.426;6.934;2022-07-23T15:47:47;26.10;83.20
35027;DHT22;60696;51.426;6.934;2022-07-23T15:50:14;26.00;83.50
35027;DHT22;60696;51.426;6.934;2022-07-23T15:52:39;26.00;84.10
35027;DHT22;60696;51.426;6.934;2022-07-23T15:55:05;26.10;84.60
35027;DHT22;60696;51.426;6.934;2022-07-23T15:57:31;25.90;83.80
35027;DHT22;60696;51.426;6.934;2022-07-23T15:59:57;26.00;84.30
35027;DHT22;60696;51.426;6.934;2022-07-23T16:02:23;25.90;85.90
35027;DHT22;60696;51.426;6.934;2022-07-23T16:04:49;25.70;84.30
35027;DHT22;60696;51.426;6.934;2022-07-23T16:07:17;25.60;84.30
35027;DHT22;60696;51.426;6.934;2022-07-23T16:09:43;25.60;84.00
35027;DHT22;60696;51.426;6.934;2022-07-23T16:12:09;25.60;86.40